createdAt,value
2023-05-15T00:02:25.662Z,62.65
2023-05-15T00:04:53.089Z,58.67
2023-05-15T00:07:20.564Z,79.93
2023-05-15T00:09:47.691Z,57.95
2023-05-15T00:12:15.476Z,57.50
2023-05-15T00:14:42.648Z,111.57
2023-05-15T00:17:09.972Z,59.55
2023-05-15T00:19:37.039Z,74.50
2023-05-15T00:22:04.477Z,60.85
2023-05-15T00:24:31.626Z,157.50
2023-05-15T00:27:00.982Z,73.95
2023-05-15T00:29:28.320Z,66.95
2023-05-15T00:31:56.190Z,108.63
2023-05-15T00:34:25.825Z,60.63
2023-05-15T00:36:53.103Z,75.72
2023-05-15T00:39:20.268Z,71.75
2023-05-15T00:41:50.047Z,146.32
2023-05-15T00:44:19.169Z,103.22
2023-05-15T00:46:47.277Z,52.25
2023-05-15T00:49:15.573Z,131.05
2023-05-15T00:51:43.258Z,50.50
2023-05-15T00:54:11.594Z,99.20
2023-05-15T00:56:39.384Z,58.75
2023-05-15T00:59:07.745Z,49.45
2023-05-15T01:01:35.560Z,46.95
2023-05-15T01:04:04.215Z,73.32
2023-05-15T01:06:32.100Z,52.45
2023-05-15T01:09:03.993Z,55.13
2023-05-15T01:11:36.327Z,65.57
2023-05-15T01:14:06.486Z,44.65
2023-05-15T01:16:38.775Z,56.25
2023-05-15T01:19:06.209Z,54.45
2023-05-15T01:21:37.593Z,48.85
2023-05-15T01:24:41.204Z,69.38
2023-05-15T01:27:49.272Z,45.67
2023-05-15T01:30:29.254Z,54.97
2023-05-15T01:33:20.652Z,53.65
2023-05-15T01:36:06.875Z,49.28
2023-05-15T01:38:53.092Z,52.43
2023-05-15T01:41:40.622Z,56.58
2023-05-15T01:44:15.605Z,63.70
2023-05-15T01:46:50.334Z,45.80
2023-05-15T01:49:20.175Z,63.33
2023-05-15T01:51:51.541Z,86.00
2023-05-15T01:54:20.779Z,47.92
2023-05-15T01:56:48.267Z,70.68
2023-05-15T01:59:16.735Z,47.08
2023-05-15T02:01:46.500Z,63.30
2023-05-15T02:04:14.520Z,83.55
2023-05-15T02:06:41.786Z,50.05
2023-05-15T02:09:10.251Z,62.90
2023-05-15T02:11:37.690Z,55.33
2023-05-15T02:14:05.647Z,69.88
2023-05-15T02:16:32.793Z,54.28
2023-05-15T02:18:59.959Z,50.97
2023-05-15T02:21:27.145Z,52.15
2023-05-15T02:23:54.267Z,58.70
2023-05-15T02:26:31.027Z,48.35
2023-05-15T02:29:14.217Z,105.97
2023-05-15T02:31:57.028Z,73.10
2023-05-15T02:34:36.020Z,69.10
2023-05-15T02:37:10.557Z,134.65
2023-05-15T02:39:38.900Z,56.08
2023-05-15T02:42:07.756Z,55.50
2023-05-15T02:44:37.519Z,46.88
2023-05-15T02:47:06.106Z,57.75
2023-05-15T02:49:34.000Z,51.25
2023-05-15T02:52:01.727Z,51.75
2023-05-15T02:54:28.954Z,130.90
2023-05-15T02:56:56.161Z,107.32
2023-05-15T02:59:23.641Z,57.50
2023-05-15T03:01:51.073Z,55.55
2023-05-15T03:04:18.581Z,94.72
2023-05-15T03:06:45.674Z,60.92
2023-05-15T03:09:12.739Z,50.67
2023-05-15T03:11:39.930Z,54.83
2023-05-15T03:14:07.168Z,57.00
2023-05-15T03:16:34.267Z,97.68
2023-05-15T03:19:01.472Z,127.53
2023-05-15T03:21:28.626Z,111.65
2023-05-15T03:23:56.242Z,55.80
2023-05-15T03:26:23.458Z,129.50
2023-05-15T03:28:51.060Z,71.07
2023-05-15T03:31:18.263Z,52.88
2023-05-15T03:33:49.846Z,79.47
2023-05-15T03:36:17.190Z,59.72
2023-05-15T03:38:44.390Z,178.82
2023-05-15T03:41:11.487Z,180.75
2023-05-15T03:43:38.708Z,84.15
2023-05-15T03:46:06.457Z,98.03
2023-05-15T03:48:33.628Z,98.63
2023-05-15T03:51:00.776Z,65.53
2023-05-15T03:53:31.338Z,129.52
2023-05-15T03:55:58.655Z,95.93
2023-05-15T03:58:26.297Z,117.38
2023-05-15T04:00:53.515Z,62.60
2023-05-15T04:03:20.741Z,67.78
2023-05-15T04:05:50.140Z,123.90
2023-05-15T04:08:17.383Z,72.28
2023-05-15T04:10:44.482Z,46.55
2023-05-15T04:13:11.575Z,44.35
2023-05-15T04:15:41.028Z,43.00
2023-05-15T04:18:08.167Z,45.03
2023-05-15T04:20:35.585Z,44.72
2023-05-15T04:23:04.251Z,45.45
2023-05-15T04:25:32.350Z,44.28
2023-05-15T04:27:59.519Z,45.40
2023-05-15T04:30:26.835Z,44.95
2023-05-15T04:32:54.283Z,44.47
2023-05-15T04:35:21.728Z,45.15
2023-05-15T04:37:48.850Z,44.25
2023-05-15T04:40:16.571Z,41.00
2023-05-15T04:42:43.947Z,42.78
2023-05-15T04:45:11.352Z,48.30
2023-05-15T04:47:38.582Z,47.55
2023-05-15T04:50:06.827Z,45.00
2023-05-15T04:52:34.041Z,40.35
2023-05-15T04:55:01.307Z,41.13
2023-05-15T04:57:30.323Z,39.50
2023-05-15T04:59:58.273Z,36.95
2023-05-15T05:02:25.567Z,36.08
2023-05-15T05:04:52.819Z,37.65
2023-05-15T05:07:20.029Z,40.97
2023-05-15T05:09:47.106Z,39.38
2023-05-15T05:12:14.530Z,37.30
2023-05-15T05:14:42.234Z,37.20
2023-05-15T05:17:09.698Z,40.03
2023-05-15T05:19:36.776Z,40.55
2023-05-15T05:22:05.643Z,38.53
2023-05-15T05:24:35.289Z,36.45
2023-05-15T05:27:02.376Z,36.58
2023-05-15T05:29:30.845Z,37.35
2023-05-15T05:31:58.565Z,38.10
2023-05-15T05:34:25.996Z,37.08
2023-05-15T05:36:53.165Z,40.28
2023-05-15T05:39:20.874Z,38.40
2023-05-15T05:41:48.020Z,36.83
2023-05-15T05:44:15.249Z,35.90
2023-05-15T05:46:42.762Z,35.15
2023-05-15T05:49:09.926Z,34.97
2023-05-15T05:51:37.182Z,33.17
2023-05-15T05:54:04.520Z,33.13
2023-05-15T05:56:31.671Z,32.90
2023-05-15T05:59:01.750Z,32.33
2023-05-15T06:01:29.337Z,31.55
2023-05-15T06:03:56.625Z,32.50
2023-05-15T06:06:23.866Z,30.02
2023-05-15T06:08:50.991Z,31.77
2023-05-15T06:11:18.256Z,30.10
2023-05-15T06:13:45.567Z,29.85
2023-05-15T06:16:12.848Z,29.70
2023-05-15T06:18:39.935Z,28.60
2023-05-15T06:21:07.052Z,27.48
2023-05-15T06:23:34.223Z,27.60
2023-05-15T06:26:01.731Z,28.20
2023-05-15T06:28:28.939Z,27.73
2023-05-15T06:30:56.180Z,28.17
2023-05-15T06:33:23.373Z,26.98
2023-05-15T06:35:50.779Z,26.52
2023-05-15T06:38:17.960Z,26.42
2023-05-15T06:40:45.104Z,26.17
2023-05-15T06:43:12.276Z,25.67
2023-05-15T06:45:39.336Z,25.63
2023-05-15T06:48:06.665Z,25.13
2023-05-15T06:50:33.743Z,25.02
2023-05-15T06:53:01.278Z,26.50
2023-05-15T06:55:28.445Z,23.88
2023-05-15T06:57:55.926Z,23.77
2023-05-15T07:00:23.144Z,23.88
2023-05-15T07:02:50.481Z,23.75
2023-05-15T07:05:17.881Z,24.63
2023-05-15T07:07:45.081Z,26.15
2023-05-15T07:10:12.340Z,25.15
2023-05-15T07:12:39.681Z,23.85
2023-05-15T07:15:07.850Z,23.05
2023-05-15T07:17:35.168Z,23.58
2023-05-15T07:20:02.566Z,22.33
2023-05-15T07:22:29.988Z,23.70
2023-05-15T07:24:58.616Z,22.73
2023-05-15T07:27:26.607Z,21.95
2023-05-15T07:29:54.086Z,22.00
2023-05-15T07:32:21.388Z,21.83
2023-05-15T07:34:48.654Z,19.40
2023-05-15T07:37:16.881Z,19.25
2023-05-15T07:39:44.369Z,20.05
2023-05-15T07:42:11.680Z,18.95
2023-05-15T07:44:38.869Z,19.65
2023-05-15T07:47:06.159Z,19.75
2023-05-15T07:49:33.277Z,20.17
2023-05-15T07:52:01.783Z,19.08
2023-05-15T07:54:31.625Z,19.42
2023-05-15T07:56:58.907Z,18.77
2023-05-15T07:59:25.991Z,18.73
2023-05-15T08:01:53.173Z,19.25
2023-05-15T08:04:20.389Z,18.83
2023-05-15T08:06:47.601Z,17.48
2023-05-15T08:09:14.828Z,17.77
2023-05-15T08:11:42.103Z,20.13
2023-05-15T08:14:10.547Z,20.35
2023-05-15T08:16:38.891Z,18.92
2023-05-15T08:19:07.904Z,18.75
2023-05-15T08:21:35.123Z,18.15
2023-05-15T08:24:02.837Z,18.70
2023-05-15T08:26:30.147Z,18.58
2023-05-15T08:28:57.780Z,18.13
2023-05-15T08:31:25.044Z,19.15
2023-05-15T08:33:52.168Z,19.05
2023-05-15T08:36:19.844Z,20.23
2023-05-15T08:38:47.031Z,18.80
2023-05-15T08:41:40.022Z,19.63
2023-05-15T08:44:14.242Z,19.13
2023-05-15T08:46:41.610Z,19.40
2023-05-15T08:49:48.156Z,17.67
2023-05-15T08:52:15.969Z,18.73
2023-05-15T08:54:44.357Z,16.73
2023-05-15T08:57:15.693Z,18.23
2023-05-15T08:59:46.298Z,18.55
2023-05-15T09:02:18.325Z,19.60
2023-05-15T09:04:45.414Z,16.88
2023-05-15T09:07:12.863Z,19.08
2023-05-15T09:09:41.537Z,17.67
2023-05-15T09:12:11.646Z,16.98
2023-05-15T09:15:12.391Z,17.65
2023-05-15T09:17:40.655Z,19.95
2023-05-15T09:21:08.174Z,18.63
2023-05-15T09:23:35.128Z,15.25
2023-05-15T09:26:02.407Z,17.02
2023-05-15T09:28:32.767Z,17.13
2023-05-15T09:31:05.324Z,17.77
2023-05-15T09:33:35.443Z,17.48
2023-05-15T09:36:04.775Z,18.65
2023-05-15T09:38:41.727Z,17.25
2023-05-15T09:41:09.700Z,18.75
2023-05-15T09:43:41.284Z,21.33
2023-05-15T09:46:09.606Z,15.70
2023-05-15T09:48:37.108Z,18.70
2023-05-15T09:51:07.678Z,15.40
2023-05-15T09:53:35.757Z,18.30
2023-05-15T09:56:21.874Z,15.95
2023-05-15T09:58:54.990Z,14.98
2023-05-15T10:01:23.350Z,14.00
2023-05-15T10:04:02.005Z,15.00
2023-05-15T10:06:44.042Z,14.05
2023-05-15T10:09:11.607Z,15.38
2023-05-15T10:11:41.613Z,15.23
2023-05-15T10:14:11.512Z,14.45
2023-05-15T10:16:40.750Z,12.48
2023-05-15T10:19:10.918Z,11.60
2023-05-15T10:21:44.803Z,15.10
2023-05-15T10:24:12.598Z,11.13
2023-05-15T10:26:43.609Z,13.27
2023-05-15T10:29:16.376Z,11.18
2023-05-15T10:31:43.758Z,12.18
2023-05-15T10:34:11.296Z,13.73
2023-05-15T10:36:38.954Z,12.88
2023-05-15T10:39:07.800Z,12.90
2023-05-15T10:41:39.141Z,14.88
2023-05-15T10:44:06.507Z,14.40
2023-05-15T10:46:36.266Z,14.23
2023-05-15T10:49:04.356Z,19.02
2023-05-15T10:51:33.247Z,16.10
2023-05-15T10:54:04.755Z,15.30
2023-05-15T10:56:40.069Z,16.00
2023-05-15T10:59:11.206Z,17.10
2023-05-15T11:01:40.587Z,15.43
2023-05-15T11:04:17.321Z,17.00
2023-05-15T11:06:49.010Z,16.15
2023-05-15T11:09:22.514Z,14.02
2023-05-15T11:12:09.450Z,14.32
2023-05-15T11:15:12.199Z,15.05
2023-05-15T11:17:39.345Z,15.55
2023-05-15T11:20:07.032Z,19.00
2023-05-15T11:22:39.972Z,17.00
2023-05-15T11:25:09.838Z,16.38
2023-05-15T11:27:44.896Z,17.55
2023-05-15T11:30:18.188Z,14.10
2023-05-15T11:32:55.421Z,14.85
2023-05-15T11:35:34.427Z,15.77
2023-05-15T11:38:10.582Z,15.57
2023-05-15T11:40:55.113Z,15.65
2023-05-15T11:43:28.714Z,14.18
2023-05-15T11:46:10.043Z,14.00
2023-05-15T11:48:47.729Z,12.45
2023-05-15T11:51:27.490Z,13.23
2023-05-15T11:53:56.382Z,12.48
2023-05-15T11:56:28.324Z,13.00
2023-05-15T11:58:58.946Z,15.02
2023-05-15T12:01:26.432Z,12.30
2023-05-15T12:03:56.402Z,11.20
2023-05-15T12:06:24.359Z,11.30
2023-05-15T12:08:53.057Z,11.73
2023-05-15T12:11:24.753Z,12.40
2023-05-15T12:13:55.507Z,10.00
2023-05-15T12:16:27.428Z,9.95
2023-05-15T12:18:57.791Z,12.52
2023-05-15T12:21:27.725Z,11.48
2023-05-15T12:24:07.744Z,9.02
2023-05-15T12:26:36.191Z,8.85
2023-05-15T12:29:04.566Z,10.60
2023-05-15T12:31:35.019Z,10.40
2023-05-15T12:34:02.535Z,9.18
2023-05-15T12:36:30.989Z,10.93
2023-05-15T12:38:58.943Z,9.38
2023-05-15T12:41:29.420Z,10.00
2023-05-15T12:43:56.625Z,8.95
2023-05-15T12:46:26.313Z,9.77
2023-05-15T12:48:54.363Z,12.95
2023-05-15T12:51:22.908Z,11.18
2023-05-15T12:53:58.123Z,13.93
2023-05-15T12:56:26.349Z,11.82
2023-05-15T12:58:54.784Z,11.80
2023-05-15T13:01:22.577Z,11.55
2023-05-15T13:03:51.158Z,12.77
2023-05-15T13:06:18.599Z,10.82
2023-05-15T13:08:46.492Z,10.88
2023-05-15T13:11:15.088Z,9.70
2023-05-15T13:13:52.990Z,10.05
2023-05-15T13:16:23.978Z,8.70
2023-05-15T13:18:52.063Z,9.30
2023-05-15T13:21:19.746Z,8.75
2023-05-15T13:23:46.980Z,10.75
2023-05-15T13:26:14.257Z,11.98
2023-05-15T13:28:41.356Z,11.18
2023-05-15T13:31:08.551Z,9.27
2023-05-15T13:33:35.943Z,11.52
2023-05-15T13:36:03.286Z,8.00
2023-05-15T13:38:30.510Z,9.50
2023-05-15T13:40:58.231Z,11.38
2023-05-15T13:43:26.713Z,9.45
2023-05-15T13:45:54.758Z,10.82
2023-05-15T13:48:22.451Z,10.93
2023-05-15T13:50:49.629Z,10.60
2023-05-15T13:53:17.057Z,10.90
2023-05-15T13:55:45.844Z,11.77
2023-05-15T13:58:13.828Z,15.85
2023-05-15T14:00:43.372Z,10.40
2023-05-15T14:03:12.020Z,11.50
2023-05-15T14:05:41.518Z,9.85
2023-05-15T14:08:08.989Z,11.35
2023-05-15T14:10:39.180Z,12.13
2023-05-15T14:13:06.393Z,9.35
2023-05-15T14:15:33.502Z,11.00
2023-05-15T14:18:00.745Z,11.13
2023-05-15T14:20:27.998Z,8.45
2023-05-15T14:22:55.268Z,10.13
2023-05-15T14:25:22.645Z,9.43
2023-05-15T14:27:49.793Z,9.27
2023-05-15T14:30:16.939Z,8.10
2023-05-15T14:32:44.194Z,9.18
2023-05-15T14:35:11.487Z,10.18
2023-05-15T14:37:38.650Z,8.00
2023-05-15T14:40:08.097Z,8.43
2023-05-15T14:42:35.372Z,8.98
2023-05-15T14:45:02.598Z,8.07
2023-05-15T14:47:30.084Z,7.28
2023-05-15T14:49:57.352Z,8.52
2023-05-15T14:52:24.536Z,11.07
2023-05-15T14:55:04.959Z,10.00
2023-05-15T14:57:35.767Z,8.38
2023-05-15T15:00:04.710Z,9.13
2023-05-15T15:02:31.933Z,8.65
2023-05-15T15:04:59.535Z,10.00
2023-05-15T15:07:32.868Z,11.35
2023-05-15T15:09:59.998Z,9.10
2023-05-15T15:12:27.684Z,9.07
2023-05-15T15:14:54.782Z,11.18
2023-05-15T15:17:21.807Z,11.50
2023-05-15T15:19:48.900Z,12.85
2023-05-15T15:22:15.993Z,13.07
2023-05-15T15:24:43.295Z,11.63
2023-05-15T15:27:10.501Z,11.77
2023-05-15T15:29:37.596Z,11.48
2023-05-15T15:32:05.113Z,12.02
2023-05-15T15:34:32.349Z,12.68
2023-05-15T15:36:59.617Z,11.65
2023-05-15T15:39:26.774Z,12.23
2023-05-15T15:41:54.871Z,10.93
2023-05-15T15:44:23.649Z,11.30
2023-05-15T15:46:50.794Z,12.45
2023-05-15T15:49:18.116Z,9.73
2023-05-15T15:51:45.401Z,12.15
2023-05-15T15:54:12.567Z,12.50
2023-05-15T15:56:40.331Z,9.90
2023-05-15T15:59:07.753Z,9.77
2023-05-15T16:01:35.167Z,10.40
2023-05-15T16:04:02.445Z,10.10
2023-05-15T16:06:29.585Z,9.88
2023-05-15T16:08:56.778Z,10.02
2023-05-15T16:11:24.074Z,9.18
2023-05-15T16:13:51.824Z,10.07
2023-05-15T16:16:19.199Z,9.50
2023-05-15T16:18:46.445Z,10.90
2023-05-15T16:21:13.861Z,10.45
2023-05-15T16:23:41.507Z,9.23
2023-05-15T16:26:10.900Z,12.63
2023-05-15T16:28:38.463Z,10.70
2023-05-15T16:31:05.695Z,11.30
2023-05-15T16:33:33.080Z,12.55
2023-05-15T16:36:00.367Z,11.80
2023-05-15T16:38:27.665Z,12.32
2023-05-15T16:40:54.745Z,11.10
2023-05-15T16:43:22.119Z,11.27
2023-05-15T16:45:49.342Z,11.05
2023-05-15T16:48:16.717Z,10.63
2023-05-15T16:50:44.023Z,10.93
2023-05-15T16:53:11.183Z,11.30
2023-05-15T16:55:38.476Z,10.85
2023-05-15T16:58:05.726Z,10.88
2023-05-15T17:00:32.807Z,12.48
2023-05-15T17:03:00.083Z,10.90
2023-05-15T17:05:27.502Z,10.40
2023-05-15T17:07:54.656Z,10.25
2023-05-15T17:10:21.805Z,8.93
2023-05-15T17:12:48.888Z,11.75
2023-05-15T17:15:15.992Z,8.60
2023-05-15T17:17:43.194Z,8.65
2023-05-15T17:20:11.619Z,7.97
2023-05-15T17:22:38.827Z,8.88
2023-05-15T17:25:07.218Z,7.45
2023-05-15T17:27:39.822Z,8.32
2023-05-15T17:30:10.077Z,7.70
2023-05-15T17:32:38.952Z,8.68
2023-05-15T17:35:06.801Z,9.65
2023-05-15T17:37:34.071Z,10.63
2023-05-15T17:40:01.416Z,9.25
2023-05-15T17:42:28.658Z,10.38
2023-05-15T17:44:56.555Z,11.23
2023-05-15T17:47:23.812Z,12.07
2023-05-15T17:49:51.027Z,13.10
2023-05-15T17:52:18.218Z,12.50
2023-05-15T17:54:45.396Z,12.50
2023-05-15T17:57:12.673Z,14.50
2023-05-15T17:59:39.882Z,13.50
2023-05-15T18:02:07.307Z,13.30
2023-05-15T18:04:34.679Z,13.65
2023-05-15T18:07:01.924Z,14.02
2023-05-15T18:09:29.627Z,13.70
2023-05-15T18:11:56.830Z,14.38
2023-05-15T18:14:24.083Z,13.73
2023-05-15T18:16:51.329Z,13.82
2023-05-15T18:19:19.104Z,13.55
2023-05-15T18:21:46.569Z,12.63
2023-05-15T18:24:13.667Z,12.80
2023-05-15T18:26:41.010Z,10.98
2023-05-15T18:29:08.209Z,10.82
2023-05-15T18:31:36.256Z,10.48
2023-05-15T18:34:03.555Z,13.40
2023-05-15T18:36:30.809Z,9.95
2023-05-15T18:38:58.045Z,9.52
2023-05-15T18:41:27.146Z,9.40
2023-05-15T18:43:54.279Z,9.75
2023-05-15T18:46:21.565Z,9.48
2023-05-15T18:48:51.099Z,8.30
2023-05-15T18:51:18.327Z,9.45
2023-05-15T18:53:45.667Z,8.57
2023-05-15T18:56:12.840Z,8.82
2023-05-15T18:58:39.973Z,8.63
2023-05-15T19:01:07.094Z,8.80
2023-05-15T19:03:37.391Z,9.75
2023-05-15T19:06:04.546Z,10.35
2023-05-15T19:08:31.753Z,9.80
2023-05-15T19:11:01.254Z,11.70
2023-05-15T19:13:32.592Z,10.55
2023-05-15T19:15:59.875Z,9.75
2023-05-15T19:18:28.573Z,10.23
2023-05-15T19:20:56.767Z,9.13
2023-05-15T19:23:24.584Z,6.85
2023-05-15T19:25:51.725Z,5.60
2023-05-15T19:28:18.852Z,7.35
2023-05-15T19:30:45.890Z,5.47
2023-05-15T19:33:15.949Z,5.35
2023-05-15T19:35:43.724Z,5.30
2023-05-15T19:38:10.835Z,6.93
2023-05-15T19:40:38.162Z,5.13
2023-05-15T19:43:05.382Z,4.82
2023-05-15T19:45:32.628Z,4.28
2023-05-15T19:48:00.430Z,5.10
2023-05-15T19:50:28.059Z,6.70
2023-05-15T19:52:55.941Z,5.85
2023-05-15T19:55:23.435Z,5.20
2023-05-15T19:57:55.633Z,4.63
2023-05-15T20:00:23.422Z,5.22
2023-05-15T20:02:50.971Z,4.13
2023-05-15T20:05:18.345Z,2.83
2023-05-15T20:07:45.502Z,4.75
2023-05-15T20:10:14.018Z,4.45
2023-05-15T20:12:41.174Z,3.30
2023-05-15T20:15:08.961Z,4.03
2023-05-15T20:17:36.101Z,3.85
2023-05-15T20:20:07.987Z,4.03
2023-05-15T20:22:35.118Z,3.25
2023-05-15T20:25:02.209Z,4.85
2023-05-15T20:27:29.368Z,5.97
2023-05-15T20:29:56.517Z,5.78
2023-05-15T20:32:23.649Z,5.57
2023-05-15T20:34:52.021Z,6.72
2023-05-15T20:37:19.650Z,5.63
2023-05-15T20:39:46.698Z,6.18
2023-05-15T20:42:13.774Z,7.13
2023-05-15T20:44:41.611Z,7.22
2023-05-15T20:47:08.841Z,7.70
2023-05-15T20:49:36.204Z,7.78
2023-05-15T20:52:03.463Z,6.88
2023-05-15T20:54:30.832Z,5.20
2023-05-15T20:56:58.021Z,6.40
2023-05-15T20:59:25.151Z,6.97
2023-05-15T21:01:52.417Z,4.78
2023-05-15T21:04:19.681Z,4.75
2023-05-15T21:06:46.839Z,4.60
2023-05-15T21:09:15.475Z,2.80
2023-05-15T21:11:42.890Z,5.45
2023-05-15T21:14:10.117Z,3.78
2023-05-15T21:16:37.297Z,3.05
2023-05-15T21:19:04.833Z,4.43
2023-05-15T21:21:32.150Z,5.15
2023-05-15T21:24:02.562Z,5.28
2023-05-15T21:26:30.332Z,4.82
2023-05-15T21:28:59.175Z,4.97
2023-05-15T21:31:27.484Z,6.35
2023-05-15T21:33:55.416Z,6.82
2023-05-15T21:36:22.867Z,9.73
2023-05-15T21:38:50.109Z,7.93
2023-05-15T21:41:17.537Z,9.50
2023-05-15T21:43:44.789Z,9.48
2023-05-15T21:46:11.841Z,9.95
2023-05-15T21:48:38.954Z,9.13
2023-05-15T21:51:06.122Z,11.45
2023-05-15T21:53:33.121Z,10.15
2023-05-15T21:56:01.628Z,11.38
2023-05-15T21:58:29.158Z,11.15
2023-05-15T22:00:56.253Z,10.90
2023-05-15T22:03:23.755Z,11.38
2023-05-15T22:05:52.731Z,9.77
2023-05-15T22:08:21.246Z,10.98
2023-05-15T22:10:49.112Z,11.30
2023-05-15T22:13:16.171Z,14.18
2023-05-15T22:15:43.307Z,13.23
2023-05-15T22:18:10.310Z,10.43
2023-05-15T22:20:37.842Z,11.93
2023-05-15T22:23:05.387Z,11.40
2023-05-15T22:25:32.435Z,10.93
2023-05-15T22:28:02.445Z,10.60
2023-05-15T22:30:31.369Z,11.18
2023-05-15T22:32:58.472Z,12.38
2023-05-15T22:35:25.559Z,13.77
2023-05-15T22:37:54.215Z,14.95
2023-05-15T22:40:21.201Z,15.00
2023-05-15T22:42:50.222Z,14.57
2023-05-15T22:45:43.315Z,13.80
2023-05-15T22:48:10.348Z,11.88
2023-05-15T22:50:37.492Z,11.60
2023-05-15T22:53:30.058Z,16.17
2023-05-15T22:55:57.025Z,15.05
2023-05-15T22:58:24.084Z,13.43
2023-05-15T23:00:51.166Z,18.55
2023-05-15T23:03:18.344Z,18.38
2023-05-15T23:05:46.371Z,16.10
2023-05-15T23:08:41.257Z,15.05
2023-05-15T23:11:08.366Z,16.45
2023-05-15T23:13:35.441Z,20.70
2023-05-15T23:16:02.418Z,18.20
2023-05-15T23:18:29.577Z,15.23
2023-05-15T23:21:21.845Z,17.30
2023-05-15T23:23:48.951Z,16.58
2023-05-15T23:26:15.880Z,17.45
2023-05-15T23:28:42.970Z,18.55
2023-05-15T23:31:13.045Z,19.42
2023-05-15T23:33:40.180Z,16.30
2023-05-15T23:36:07.660Z,15.40
2023-05-15T23:38:34.821Z,15.48
2023-05-15T23:41:01.837Z,18.58
2023-05-15T23:43:28.842Z,22.40
2023-05-15T23:45:55.974Z,18.63
2023-05-15T23:48:22.982Z,16.92
2023-05-15T23:50:50.165Z,17.45
2023-05-15T23:53:17.289Z,20.50
2023-05-15T23:55:44.313Z,15.90
2023-05-15T23:58:11.270Z,20.52
